createdAt,value
2023-02-19T00:01:21.526Z,90.10
2023-02-19T00:03:50.689Z,90.30
2023-02-19T00:06:17.978Z,90.20
2023-02-19T00:08:45.055Z,90.10
2023-02-19T00:11:13.231Z,90.10
2023-02-19T00:13:41.204Z,90.10
2023-02-19T00:16:08.064Z,90.00
2023-02-19T00:18:35.041Z,90.10
2023-02-19T00:21:02.233Z,90.20
2023-02-19T00:23:29.170Z,90.20
2023-02-19T00:26:00.996Z,90.30
2023-02-19T00:28:30.065Z,90.30
2023-02-19T00:30:56.974Z,90.20
2023-02-19T00:33:23.771Z,90.20
2023-02-19T00:35:50.606Z,90.20
2023-02-19T00:38:17.350Z,90.10
2023-02-19T00:40:44.063Z,90.10
2023-02-19T00:43:10.946Z,90.20
2023-02-19T00:45:38.311Z,90.20
2023-02-19T00:48:05.076Z,90.40
2023-02-19T00:50:31.862Z,90.40
2023-02-19T00:52:58.593Z,90.40
2023-02-19T00:55:25.608Z,90.30
2023-02-19T00:57:52.440Z,90.40
2023-02-19T01:00:19.211Z,90.40
2023-02-19T01:02:45.971Z,90.20
2023-02-19T01:05:12.900Z,90.30
2023-02-19T01:07:39.767Z,90.50
2023-02-19T01:10:06.660Z,90.50
2023-02-19T01:12:33.510Z,90.50
2023-02-19T01:15:00.407Z,90.50
2023-02-19T01:17:29.967Z,90.40
2023-02-19T01:19:56.810Z,90.30
2023-02-19T01:22:23.553Z,90.30
2023-02-19T01:24:50.408Z,90.40
2023-02-19T01:27:17.191Z,90.30
2023-02-19T01:29:44.001Z,90.40
2023-02-19T01:32:10.772Z,90.40
2023-02-19T01:34:37.701Z,90.50
2023-02-19T01:37:04.572Z,90.30
2023-02-19T01:39:38.848Z,90.40
2023-02-19T01:42:06.106Z,90.50
2023-02-19T01:44:32.802Z,90.50
2023-02-19T01:46:59.492Z,90.40
2023-02-19T01:49:37.393Z,90.30
2023-02-19T01:52:15.666Z,90.60
2023-02-19T01:54:43.262Z,90.50
2023-02-19T01:57:13.557Z,90.40
2023-02-19T01:59:40.638Z,90.40
2023-02-19T02:02:07.563Z,90.30
2023-02-19T02:04:34.651Z,90.40
2023-02-19T02:07:02.681Z,90.40
2023-02-19T02:09:49.560Z,90.30
2023-02-19T02:12:16.346Z,90.40
2023-02-19T02:14:45.502Z,90.50
2023-02-19T02:17:26.060Z,90.50
2023-02-19T02:19:55.513Z,90.40
2023-02-19T02:22:35.191Z,90.40
2023-02-19T02:25:20.365Z,90.20
2023-02-19T02:28:05.958Z,90.30
2023-02-19T02:30:35.660Z,90.30
2023-02-19T02:33:11.466Z,90.40
2023-02-19T02:35:47.674Z,90.30
2023-02-19T02:38:15.622Z,90.40
2023-02-19T02:40:44.181Z,90.40
2023-02-19T02:43:11.838Z,90.30
2023-02-19T02:45:39.878Z,90.30
2023-02-19T02:48:25.572Z,90.30
2023-02-19T02:50:55.222Z,90.20
2023-02-19T02:53:43.346Z,90.10
2023-02-19T02:56:10.700Z,90.30
2023-02-19T02:58:37.956Z,90.30
2023-02-19T03:01:24.968Z,90.30
2023-02-19T03:03:54.781Z,90.30
2023-02-19T03:06:22.450Z,90.10
2023-02-19T03:08:52.759Z,90.30
2023-02-19T03:11:38.119Z,90.30
2023-02-19T03:14:26.909Z,90.20
2023-02-19T03:17:14.103Z,90.30
2023-02-19T03:19:42.806Z,90.40
2023-02-19T03:22:36.053Z,90.30
2023-02-19T03:25:32.409Z,90.30
2023-02-19T03:28:00.837Z,90.30
2023-02-19T03:30:35.892Z,90.20
2023-02-19T03:33:22.908Z,90.10
2023-02-19T03:35:52.476Z,90.20
2023-02-19T03:38:28.352Z,90.30
2023-02-19T03:41:01.353Z,90.40
2023-02-19T03:43:34.739Z,90.20
2023-02-19T03:46:07.330Z,90.40
2023-02-19T03:48:35.411Z,90.30
2023-02-19T03:51:08.080Z,90.10
2023-02-19T03:53:42.754Z,90.20
2023-02-19T03:56:13.107Z,90.40
2023-02-19T03:58:45.934Z,90.20
2023-02-19T04:01:25.796Z,90.30
2023-02-19T04:03:55.446Z,90.40
2023-02-19T04:06:29.992Z,90.20
2023-02-19T04:08:59.033Z,90.60
2023-02-19T04:11:27.317Z,90.30
2023-02-19T04:14:03.141Z,90.30
2023-02-19T04:16:30.379Z,90.20
2023-02-19T04:18:59.465Z,90.30
2023-02-19T04:21:26.801Z,90.40
2023-02-19T04:23:53.598Z,90.20
2023-02-19T04:26:21.867Z,90.20
2023-02-19T04:28:48.674Z,90.40
2023-02-19T04:31:15.474Z,90.20
2023-02-19T04:33:42.288Z,90.40
2023-02-19T04:36:11.190Z,90.30
2023-02-19T04:38:38.029Z,90.30
2023-02-19T04:41:04.848Z,90.30
2023-02-19T04:43:31.605Z,90.60
2023-02-19T04:46:00.153Z,90.20
2023-02-19T04:48:26.956Z,90.50
2023-02-19T04:50:53.777Z,90.20
2023-02-19T04:53:20.609Z,90.50
2023-02-19T04:55:48.194Z,90.40
2023-02-19T04:58:14.978Z,90.50
2023-02-19T05:00:41.719Z,90.50
2023-02-19T05:03:08.504Z,90.50
2023-02-19T05:05:35.358Z,90.40
2023-02-19T05:08:02.090Z,90.50
2023-02-19T05:10:28.853Z,90.40
2023-02-19T05:12:57.906Z,90.30
2023-02-19T05:15:24.762Z,90.10
2023-02-19T05:17:51.498Z,89.10
2023-02-19T05:20:18.546Z,87.60
2023-02-19T05:22:45.257Z,86.80
2023-02-19T05:25:11.973Z,85.90
2023-02-19T05:27:38.733Z,85.30
2023-02-19T05:30:05.788Z,84.30
2023-02-19T05:32:34.485Z,83.70
2023-02-19T05:35:01.286Z,83.00
2023-02-19T05:37:28.002Z,82.40
2023-02-19T05:39:54.702Z,82.10
2023-02-19T05:42:25.004Z,82.10
2023-02-19T05:44:51.775Z,82.00
2023-02-19T05:47:18.519Z,82.00
2023-02-19T05:49:45.356Z,81.90
2023-02-19T05:52:12.098Z,82.60
2023-02-19T05:54:38.869Z,82.20
2023-02-19T05:57:05.641Z,82.00
2023-02-19T05:59:32.469Z,82.00
2023-02-19T06:01:59.210Z,81.90
2023-02-19T06:04:26.185Z,81.90
2023-02-19T06:06:52.968Z,81.90
2023-02-19T06:09:19.713Z,81.80
2023-02-19T06:11:46.611Z,81.70
2023-02-19T06:14:14.112Z,81.50
2023-02-19T06:16:41.071Z,81.80
2023-02-19T06:19:08.196Z,81.70
2023-02-19T06:21:35.024Z,81.50
2023-02-19T06:24:06.024Z,81.70
2023-02-19T06:26:33.424Z,81.80
2023-02-19T06:29:00.230Z,81.40
2023-02-19T06:31:27.119Z,81.70
2023-02-19T06:33:55.199Z,81.90
2023-02-19T06:36:22.337Z,82.00
2023-02-19T06:38:49.186Z,82.10
2023-02-19T06:41:16.135Z,82.20
2023-02-19T06:43:42.954Z,82.10
2023-02-19T06:46:11.516Z,81.90
2023-02-19T06:48:39.000Z,82.00
2023-02-19T06:51:05.829Z,82.10
2023-02-19T06:53:32.549Z,82.20
2023-02-19T06:56:19.255Z,82.10
2023-02-19T06:58:46.046Z,81.90
2023-02-19T07:01:13.102Z,81.90
2023-02-19T07:03:40.123Z,82.10
2023-02-19T07:06:07.011Z,81.70
2023-02-19T07:08:33.769Z,81.80
2023-02-19T07:11:00.643Z,82.50
2023-02-19T07:13:27.421Z,82.60
2023-02-19T07:16:01.052Z,81.80
2023-02-19T07:18:28.068Z,81.70
2023-02-19T07:20:54.921Z,81.70
2023-02-19T07:23:21.764Z,81.60
2023-02-19T07:25:48.484Z,81.20
2023-02-19T07:28:16.389Z,80.80
2023-02-19T07:30:43.277Z,81.00
2023-02-19T07:33:10.676Z,80.90
2023-02-19T07:35:37.492Z,80.70
2023-02-19T07:38:04.277Z,80.70
2023-02-19T07:40:30.994Z,80.70
2023-02-19T07:42:59.229Z,80.60
2023-02-19T07:45:26.080Z,80.50
2023-02-19T07:47:52.810Z,80.30
2023-02-19T07:50:19.585Z,80.30
2023-02-19T07:52:46.538Z,80.30
2023-02-19T07:55:13.281Z,80.20
2023-02-19T07:57:40.046Z,80.90
2023-02-19T08:00:06.965Z,80.20
2023-02-19T08:02:52.063Z,80.20
2023-02-19T08:05:18.852Z,80.10
2023-02-19T08:07:45.653Z,80.10
2023-02-19T08:10:30.939Z,80.30
2023-02-19T08:13:17.009Z,80.60
2023-02-19T08:15:44.002Z,79.90
2023-02-19T08:18:11.505Z,80.40
2023-02-19T08:20:38.319Z,81.00
2023-02-19T08:23:05.170Z,80.80
2023-02-19T08:25:31.963Z,75.30
2023-02-19T08:28:00.378Z,76.60
2023-02-19T08:30:28.496Z,76.80
2023-02-19T08:32:55.503Z,81.10
2023-02-19T08:35:22.689Z,79.90
2023-02-19T08:37:49.861Z,78.60
2023-02-19T08:40:16.702Z,76.90
2023-02-19T08:42:43.420Z,79.00
2023-02-19T08:45:12.641Z,75.90
2023-02-19T08:47:39.617Z,78.20
2023-02-19T08:50:06.997Z,76.60
2023-02-19T08:52:34.168Z,77.30
2023-02-19T08:55:01.412Z,75.70
2023-02-19T08:57:29.284Z,76.40
2023-02-19T08:59:57.164Z,75.10
2023-02-19T09:02:26.707Z,74.80
2023-02-19T09:04:53.563Z,74.80
2023-02-19T09:07:20.467Z,75.10
2023-02-19T09:09:47.236Z,76.40
2023-02-19T09:12:14.170Z,76.70
2023-02-19T09:14:41.611Z,76.50
2023-02-19T09:17:09.701Z,76.20
2023-02-19T09:19:36.524Z,75.50
2023-02-19T09:22:04.514Z,75.20
2023-02-19T09:24:31.659Z,75.50
2023-02-19T09:26:58.500Z,75.10
2023-02-19T09:29:26.413Z,75.30
2023-02-19T09:31:59.677Z,75.60
2023-02-19T09:34:27.072Z,76.40
2023-02-19T09:36:54.681Z,76.90
2023-02-19T09:39:21.856Z,77.40
2023-02-19T09:41:52.001Z,79.50
2023-02-19T09:44:23.905Z,80.80
2023-02-19T09:46:51.771Z,81.20
2023-02-19T09:49:21.301Z,81.70
2023-02-19T09:51:56.821Z,81.10
2023-02-19T09:54:25.213Z,80.90
2023-02-19T09:56:53.152Z,80.10
2023-02-19T09:59:27.982Z,78.30
2023-02-19T10:01:59.273Z,79.70
2023-02-19T10:04:26.123Z,81.00
2023-02-19T10:06:52.999Z,79.50
2023-02-19T10:09:22.433Z,80.20
2023-02-19T10:11:50.036Z,80.20
2023-02-19T10:14:26.022Z,80.90
2023-02-19T10:16:53.196Z,81.30
2023-02-19T10:19:20.007Z,81.90
2023-02-19T10:21:46.938Z,83.00
2023-02-19T10:24:17.095Z,83.50
2023-02-19T10:26:43.848Z,83.60
2023-02-19T10:29:10.944Z,84.20
2023-02-19T10:31:37.767Z,84.90
2023-02-19T10:34:06.609Z,85.00
2023-02-19T10:36:37.256Z,85.30
2023-02-19T10:39:08.387Z,85.30
2023-02-19T10:41:41.996Z,84.90
2023-02-19T10:44:14.628Z,84.90
2023-02-19T10:46:45.305Z,85.40
2023-02-19T10:49:30.825Z,85.70
2023-02-19T10:52:01.621Z,85.80
2023-02-19T10:54:36.161Z,85.90
2023-02-19T10:57:15.771Z,85.80
2023-02-19T10:59:49.624Z,86.10
2023-02-19T11:02:17.848Z,85.90
2023-02-19T11:05:04.922Z,86.80
2023-02-19T11:07:31.802Z,86.40
2023-02-19T11:09:59.070Z,86.20
2023-02-19T11:12:30.911Z,86.10
2023-02-19T11:14:59.202Z,86.40
2023-02-19T11:17:30.098Z,86.50
2023-02-19T11:20:23.263Z,86.40
2023-02-19T11:22:50.714Z,87.10
2023-02-19T11:25:17.783Z,87.50
2023-02-19T11:27:54.890Z,87.10
2023-02-19T11:30:33.922Z,87.50
2023-02-19T11:33:17.382Z,87.70
2023-02-19T11:35:44.915Z,87.70
2023-02-19T11:38:13.151Z,87.70
2023-02-19T11:40:40.013Z,87.40
2023-02-19T11:43:19.069Z,87.60
2023-02-19T11:45:53.125Z,87.80
2023-02-19T11:48:20.239Z,87.70
2023-02-19T11:51:00.132Z,88.40
2023-02-19T11:53:29.560Z,88.10
2023-02-19T11:55:56.283Z,88.10
2023-02-19T11:58:41.904Z,88.10
2023-02-19T12:01:18.037Z,88.30
2023-02-19T12:04:00.305Z,88.40
2023-02-19T12:06:42.963Z,88.60
2023-02-19T12:09:17.079Z,88.60
2023-02-19T12:12:02.601Z,88.70
2023-02-19T12:14:29.496Z,88.80
2023-02-19T12:17:05.138Z,88.70
2023-02-19T12:19:32.003Z,88.80
2023-02-19T12:22:17.137Z,88.90
2023-02-19T12:25:02.814Z,89.10
2023-02-19T12:27:29.566Z,89.10
2023-02-19T12:29:59.040Z,89.30
2023-02-19T12:32:41.344Z,89.30
2023-02-19T12:35:08.046Z,89.40
2023-02-19T12:37:58.827Z,89.40
2023-02-19T12:40:25.542Z,89.40
2023-02-19T12:43:01.325Z,89.70
2023-02-19T12:45:37.810Z,89.70
2023-02-19T12:48:20.901Z,89.80
2023-02-19T12:50:48.857Z,89.80
2023-02-19T12:53:21.896Z,89.90
2023-02-19T12:55:48.861Z,89.90
2023-02-19T12:58:45.023Z,90.00
2023-02-19T13:01:15.135Z,89.90
2023-02-19T13:03:46.122Z,90.00
2023-02-19T13:06:15.791Z,90.00
2023-02-19T13:09:05.342Z,90.00
2023-02-19T13:11:53.533Z,90.00
2023-02-19T13:14:39.178Z,90.10
2023-02-19T13:17:27.622Z,90.20
2023-02-19T13:19:58.392Z,90.20
2023-02-19T13:22:48.844Z,90.10
2023-02-19T13:25:16.786Z,90.20
2023-02-19T13:27:49.352Z,90.20
2023-02-19T13:30:30.572Z,90.20
2023-02-19T13:33:05.941Z,90.20
2023-02-19T13:35:51.208Z,90.20
2023-02-19T13:38:18.153Z,90.30
2023-02-19T13:40:55.368Z,90.30
2023-02-19T13:43:26.923Z,90.30
2023-02-19T13:45:55.564Z,90.30
2023-02-19T13:48:33.765Z,90.30
2023-02-19T13:51:12.877Z,90.30
2023-02-19T13:53:42.682Z,90.40
2023-02-19T13:56:28.160Z,90.40
2023-02-19T13:59:13.832Z,90.40
2023-02-19T14:01:50.046Z,90.70
2023-02-19T14:04:19.924Z,89.80
2023-02-19T14:07:04.910Z,89.30
2023-02-19T14:09:35.465Z,89.80
2023-02-19T14:12:18.120Z,90.20
2023-02-19T14:14:49.617Z,90.30
2023-02-19T14:17:35.084Z,90.40
2023-02-19T14:20:01.906Z,90.30
2023-02-19T14:22:47.230Z,90.10
2023-02-19T14:25:26.092Z,90.20
2023-02-19T14:27:54.301Z,90.20
2023-02-19T14:30:22.614Z,90.40
2023-02-19T14:32:54.514Z,90.50
2023-02-19T14:35:27.601Z,90.30
2023-02-19T14:37:55.362Z,90.40
2023-02-19T14:40:24.092Z,90.40
2023-02-19T14:42:53.472Z,90.40
2023-02-19T14:45:20.742Z,90.60
2023-02-19T14:47:48.630Z,90.40
2023-02-19T14:50:19.999Z,90.40
2023-02-19T14:52:51.517Z,90.30
2023-02-19T14:55:30.437Z,90.40
2023-02-19T14:57:58.734Z,90.40
2023-02-19T15:00:27.816Z,90.50
2023-02-19T15:02:59.961Z,90.50
2023-02-19T15:05:28.064Z,90.60
2023-02-19T15:07:56.243Z,90.70
2023-02-19T15:10:23.296Z,90.70
2023-02-19T15:12:54.664Z,90.70
2023-02-19T15:15:25.815Z,90.80
2023-02-19T15:17:53.757Z,90.90
2023-02-19T15:20:22.882Z,91.00
2023-02-19T15:22:49.845Z,91.10
2023-02-19T15:25:18.292Z,91.10
2023-02-19T15:27:45.381Z,91.10
2023-02-19T15:30:23.414Z,91.20
2023-02-19T15:32:54.923Z,91.20
2023-02-19T15:35:23.994Z,91.20
2023-02-19T15:37:51.400Z,91.30
2023-02-19T15:40:19.934Z,91.30
2023-02-19T15:42:47.925Z,91.30
2023-02-19T15:45:21.238Z,91.70
2023-02-19T15:47:49.336Z,91.40
2023-02-19T15:50:17.814Z,91.40
2023-02-19T15:52:50.645Z,91.50
2023-02-19T15:55:17.386Z,91.50
2023-02-19T15:57:46.928Z,91.50
2023-02-19T16:00:19.930Z,91.50
2023-02-19T16:02:46.949Z,91.60
2023-02-19T16:05:17.578Z,91.60
2023-02-19T16:07:44.561Z,91.60
2023-02-19T16:10:20.580Z,91.60
2023-02-19T16:12:57.390Z,91.60
2023-02-19T16:15:24.257Z,91.70
2023-02-19T16:17:51.112Z,91.70
2023-02-19T16:20:26.021Z,91.70
2023-02-19T16:22:56.641Z,91.70
2023-02-19T16:25:28.589Z,91.80
2023-02-19T16:27:55.960Z,91.80
2023-02-19T16:30:31.096Z,91.80
2023-02-19T16:33:16.449Z,92.10
2023-02-19T16:35:45.122Z,91.80
2023-02-19T16:38:13.775Z,91.80
2023-02-19T16:40:43.462Z,91.90
2023-02-19T16:43:13.263Z,91.80
2023-02-19T16:45:46.752Z,91.90
2023-02-19T16:48:14.310Z,91.90
2023-02-19T16:50:46.310Z,91.90
2023-02-19T16:53:31.296Z,92.00
2023-02-19T16:56:00.208Z,92.00
2023-02-19T16:58:27.247Z,92.00
2023-02-19T17:00:54.294Z,92.00
2023-02-19T17:03:22.452Z,92.00
2023-02-19T17:05:49.527Z,92.00
2023-02-19T17:08:28.935Z,92.10
2023-02-19T17:10:56.268Z,92.00
2023-02-19T17:13:23.227Z,92.00
2023-02-19T17:15:50.126Z,92.00
2023-02-19T17:18:17.110Z,92.00
2023-02-19T17:20:48.085Z,92.00
2023-02-19T17:23:15.068Z,92.00
2023-02-19T17:25:42.152Z,92.00
2023-02-19T17:28:08.970Z,92.00
2023-02-19T17:30:37.259Z,92.00
2023-02-19T17:33:05.272Z,92.10
2023-02-19T17:35:32.127Z,92.10
2023-02-19T17:37:59.000Z,92.20
2023-02-19T17:40:33.220Z,92.10
2023-02-19T17:43:00.680Z,92.20
2023-02-19T17:45:27.429Z,92.20
2023-02-19T17:47:54.300Z,92.20
2023-02-19T17:50:22.717Z,92.20
2023-02-19T17:52:49.504Z,92.20
2023-02-19T17:55:18.439Z,92.20
2023-02-19T17:57:46.245Z,92.20
2023-02-19T18:00:14.441Z,92.20
2023-02-19T18:02:41.244Z,92.30
2023-02-19T18:05:08.512Z,92.20
2023-02-19T18:07:36.256Z,92.30
2023-02-19T18:10:03.869Z,92.20
2023-02-19T18:12:30.799Z,92.20
2023-02-19T18:14:58.357Z,92.30
2023-02-19T18:17:26.039Z,92.20
2023-02-19T18:19:53.680Z,92.30
2023-02-19T18:22:20.771Z,92.30
2023-02-19T18:24:51.932Z,92.30
2023-02-19T18:27:20.661Z,92.30
2023-02-19T18:29:54.650Z,92.30
2023-02-19T18:32:24.986Z,92.30
2023-02-19T18:34:55.784Z,92.30
2023-02-19T18:37:23.109Z,92.30
2023-02-19T18:39:49.962Z,92.30
2023-02-19T18:42:16.816Z,92.20
2023-02-19T18:44:43.975Z,92.20
2023-02-19T18:47:11.619Z,92.20
2023-02-19T18:49:38.539Z,92.20
2023-02-19T18:52:05.824Z,92.20
2023-02-19T18:54:32.717Z,92.20
2023-02-19T18:57:03.821Z,92.20
2023-02-19T18:59:31.068Z,92.20
2023-02-19T19:01:57.930Z,92.20
2023-02-19T19:04:24.784Z,92.20
2023-02-19T19:06:51.618Z,92.30
2023-02-19T19:09:18.416Z,92.30
2023-02-19T19:11:46.612Z,92.30
2023-02-19T19:14:13.587Z,92.30
2023-02-19T19:16:40.893Z,92.30
2023-02-19T19:19:07.710Z,92.30
2023-02-19T19:21:34.626Z,92.30
2023-02-19T19:24:01.562Z,92.30
2023-02-19T19:26:28.391Z,92.30
2023-02-19T19:28:55.202Z,92.30
2023-02-19T19:31:22.319Z,92.40
2023-02-19T19:33:49.261Z,92.40
2023-02-19T19:36:19.588Z,92.40
2023-02-19T19:38:46.904Z,92.40
2023-02-19T19:41:14.513Z,92.30
2023-02-19T19:43:41.416Z,92.40
2023-02-19T19:46:11.199Z,92.40
2023-02-19T19:48:41.068Z,92.40
2023-02-19T19:51:08.093Z,92.30
2023-02-19T19:53:34.885Z,92.40
2023-02-19T19:56:01.994Z,92.30
2023-02-19T19:58:28.958Z,92.30
2023-02-19T20:00:56.235Z,92.30
2023-02-19T20:03:23.070Z,92.30
2023-02-19T20:05:53.080Z,92.30
2023-02-19T20:08:20.180Z,92.20
2023-02-19T20:10:47.026Z,92.20
2023-02-19T20:13:17.771Z,92.20
2023-02-19T20:15:44.720Z,92.20
2023-02-19T20:18:11.828Z,92.20
2023-02-19T20:20:38.619Z,92.10
2023-02-19T20:23:05.362Z,92.10
2023-02-19T20:25:32.198Z,92.40
2023-02-19T20:27:59.108Z,92.10
2023-02-19T20:30:25.914Z,92.10
2023-02-19T20:32:54.062Z,92.00
2023-02-19T20:35:21.109Z,92.00
2023-02-19T20:37:49.424Z,92.00
2023-02-19T20:40:17.520Z,91.90
2023-02-19T20:42:44.279Z,91.90
2023-02-19T20:45:11.138Z,91.90
2023-02-19T20:47:39.487Z,91.80
2023-02-19T20:50:06.985Z,91.80
2023-02-19T20:52:33.747Z,91.80
2023-02-19T20:55:00.670Z,91.80
2023-02-19T20:57:28.732Z,91.80
2023-02-19T20:59:55.503Z,91.80
2023-02-19T21:02:29.107Z,91.80
2023-02-19T21:04:56.771Z,91.80
2023-02-19T21:07:24.348Z,91.80
2023-02-19T21:09:52.181Z,91.80
2023-02-19T21:12:19.460Z,91.70
2023-02-19T21:14:46.612Z,91.70
2023-02-19T21:17:13.574Z,91.70
2023-02-19T21:19:40.492Z,91.70
2023-02-19T21:22:07.466Z,91.70
2023-02-19T21:24:34.454Z,91.70
2023-02-19T21:27:01.219Z,91.70
2023-02-19T21:29:28.156Z,91.70
2023-02-19T21:31:56.161Z,91.70
2023-02-19T21:34:24.782Z,91.70
2023-02-19T21:36:51.940Z,91.60
2023-02-19T21:39:20.121Z,91.60
2023-02-19T21:41:47.125Z,91.60
2023-02-19T21:44:14.242Z,91.60
2023-02-19T21:46:41.176Z,91.70
2023-02-19T21:49:08.057Z,91.60
2023-02-19T21:51:36.192Z,91.60
2023-02-19T21:54:03.576Z,91.60
2023-02-19T21:56:31.450Z,91.60
2023-02-19T21:58:58.506Z,91.60
2023-02-19T22:01:33.304Z,91.60
2023-02-19T22:04:00.246Z,91.60
2023-02-19T22:06:29.189Z,91.60
2023-02-19T22:08:56.342Z,91.60
2023-02-19T22:11:23.110Z,91.70
2023-02-19T22:13:50.475Z,91.70
2023-02-19T22:16:17.753Z,91.60
2023-02-19T22:18:52.184Z,91.90
2023-02-19T22:21:19.578Z,91.60
2023-02-19T22:23:47.896Z,91.60
2023-02-19T22:26:21.790Z,91.60
2023-02-19T22:28:48.637Z,91.60
2023-02-19T22:31:16.447Z,91.60
2023-02-19T22:33:43.489Z,91.60
2023-02-19T22:36:23.412Z,91.60
2023-02-19T22:38:50.549Z,91.60
2023-02-19T22:41:18.247Z,91.80
2023-02-19T22:43:45.264Z,91.60
2023-02-19T22:46:14.544Z,91.70
2023-02-19T22:48:41.484Z,91.60
2023-02-19T22:51:13.238Z,91.60
2023-02-19T22:53:46.720Z,91.70
2023-02-19T22:56:14.234Z,91.60
2023-02-19T22:58:42.012Z,91.70
2023-02-19T23:01:09.623Z,91.70
2023-02-19T23:03:45.057Z,91.60
2023-02-19T23:06:12.086Z,91.70
2023-02-19T23:08:39.021Z,91.70
2023-02-19T23:11:05.778Z,91.70
2023-02-19T23:13:32.615Z,91.60
2023-02-19T23:15:59.344Z,91.60
2023-02-19T23:18:26.097Z,91.60
2023-02-19T23:20:52.932Z,91.60
2023-02-19T23:23:19.723Z,91.60
2023-02-19T23:25:46.460Z,91.60
2023-02-19T23:28:13.228Z,91.60
2023-02-19T23:30:40.052Z,91.60
2023-02-19T23:33:06.849Z,91.60
2023-02-19T23:35:33.697Z,91.60
2023-02-19T23:38:01.407Z,91.80
2023-02-19T23:40:28.224Z,91.60
2023-02-19T23:42:56.899Z,91.60
2023-02-19T23:45:23.642Z,91.60
2023-02-19T23:47:50.447Z,91.60
2023-02-19T23:50:17.497Z,91.60
2023-02-19T23:52:44.232Z,91.60
2023-02-19T23:55:10.988Z,91.60
2023-02-19T23:57:37.788Z,91.60
